sensor_id;sensor_type;location;lat;lon;timestamp;P1;durP1;ratioP1;P2;durP2;ratioP2
59978;SDS011;45839;44.882;20.650;2022-12-24T00:01:57;35.15;;;29.23;;
59978;SDS011;45839;44.882;20.650;2022-12-24T00:04:23;37.55;;;31.52;;
59978;SDS011;45839;44.882;20.650;2022-12-24T00:06:49;36.58;;;29.85;;
59978;SDS011;45839;44.882;20.650;2022-12-24T00:09:15;38.88;;;29.55;;
59978;SDS011;45839;44.882;20.650;2022-12-24T00:11:41;34.80;;;28.70;;
59978;SDS011;45839;44.882;20.650;2022-12-24T00:14:07;39.25;;;30.08;;
59978;SDS011;45839;44.882;20.650;2022-12-24T00:16:33;34.72;;;28.40;;
59978;SDS011;45839;44.882;20.650;2022-12-24T00:18:59;34.45;;;28.70;;
59978;SDS011;45839;44.882;20.650;2022-12-24T00:21:25;34.65;;;27.95;;
59978;SDS011;45839;44.882;20.650;2022-12-24T00:23:51;33.60;;;26.80;;
59978;SDS011;45839;44.882;20.650;2022-12-24T00:26:17;33.10;;;27.17;;
59978;SDS011;45839;44.882;20.650;2022-12-24T00:28:43;32.65;;;27.15;;
59978;SDS011;45839;44.882;20.650;2022-12-24T00:31:14;32.95;;;27.40;;
59978;SDS011;45839;44.882;20.650;2022-12-24T00:33:40;33.17;;;27.63;;
59978;SDS011;45839;44.882;20.650;2022-12-24T00:36:06;34.22;;;26.77;;
59978;SDS011;45839;44.882;20.650;2022-12-24T00:38:33;34.15;;;27.83;;
59978;SDS011;45839;44.882;20.650;2022-12-24T00:41:00;31.90;;;26.58;;
59978;SDS011;45839;44.882;20.650;2022-12-24T00:43:27;31.08;;;25.27;;
59978;SDS011;45839;44.882;20.650;2022-12-24T00:45:54;30.30;;;24.90;;
59978;SDS011;45839;44.882;20.650;2022-12-24T00:48:20;33.67;;;26.70;;
59978;SDS011;45839;44.882;20.650;2022-12-24T00:50:47;31.80;;;25.73;;
59978;SDS011;45839;44.882;20.650;2022-12-24T00:53:13;31.38;;;25.85;;
59978;SDS011;45839;44.882;20.650;2022-12-24T00:55:39;32.97;;;26.33;;
59978;SDS011;45839;44.882;20.650;2022-12-24T00:58:05;31.27;;;25.60;;
59978;SDS011;45839;44.882;20.650;2022-12-24T01:00:31;30.90;;;25.77;;
59978;SDS011;45839;44.882;20.650;2022-12-24T01:02:57;33.55;;;26.67;;
59978;SDS011;45839;44.882;20.650;2022-12-24T01:05:23;31.13;;;25.50;;
59978;SDS011;45839;44.882;20.650;2022-12-24T01:07:49;30.88;;;25.83;;
59978;SDS011;45839;44.882;20.650;2022-12-24T01:10:17;31.98;;;25.80;;
59978;SDS011;45839;44.882;20.650;2022-12-24T01:12:44;30.85;;;24.77;;
59978;SDS011;45839;44.882;20.650;2022-12-24T01:15:10;31.73;;;25.67;;
59978;SDS011;45839;44.882;20.650;2022-12-24T01:17:37;32.58;;;25.92;;
59978;SDS011;45839;44.882;20.650;2022-12-24T01:20:04;31.40;;;25.70;;
59978;SDS011;45839;44.882;20.650;2022-12-24T01:22:30;30.00;;;24.27;;
59978;SDS011;45839;44.882;20.650;2022-12-24T01:24:56;32.28;;;25.02;;
59978;SDS011;45839;44.882;20.650;2022-12-24T01:27:22;32.35;;;25.65;;
59978;SDS011;45839;44.882;20.650;2022-12-24T01:29:48;32.30;;;25.05;;
59978;SDS011;45839;44.882;20.650;2022-12-24T01:32:14;30.52;;;24.85;;
59978;SDS011;45839;44.882;20.650;2022-12-24T01:34:40;31.58;;;25.40;;
59978;SDS011;45839;44.882;20.650;2022-12-24T01:37:06;29.08;;;23.45;;
59978;SDS011;45839;44.882;20.650;2022-12-24T01:39:32;32.05;;;25.17;;
59978;SDS011;45839;44.882;20.650;2022-12-24T01:41:58;35.03;;;25.77;;
59978;SDS011;45839;44.882;20.650;2022-12-24T01:44:43;33.30;;;26.15;;
59978;SDS011;45839;44.882;20.650;2022-12-24T01:47:26;31.75;;;25.02;;
59978;SDS011;45839;44.882;20.650;2022-12-24T01:49:57;32.05;;;24.35;;
59978;SDS011;45839;44.882;20.650;2022-12-24T01:52:25;32.40;;;24.77;;
59978;SDS011;45839;44.882;20.650;2022-12-24T01:54:54;33.03;;;25.20;;
59978;SDS011;45839;44.882;20.650;2022-12-24T01:57:23;30.00;;;24.02;;
59978;SDS011;45839;44.882;20.650;2022-12-24T01:59:52;28.10;;;23.27;;
59978;SDS011;45839;44.882;20.650;2022-12-24T02:02:20;29.45;;;23.27;;
59978;SDS011;45839;44.882;20.650;2022-12-24T02:04:50;29.80;;;23.27;;
59978;SDS011;45839;44.882;20.650;2022-12-24T02:07:18;27.67;;;23.05;;
59978;SDS011;45839;44.882;20.650;2022-12-24T02:09:44;27.63;;;22.88;;
59978;SDS011;45839;44.882;20.650;2022-12-24T02:12:10;29.67;;;24.10;;
59978;SDS011;45839;44.882;20.650;2022-12-24T02:14:36;28.63;;;23.25;;
59978;SDS011;45839;44.882;20.650;2022-12-24T02:32:22;27.45;;;22.02;;
59978;SDS011;45839;44.882;20.650;2022-12-24T02:37:21;27.80;;;22.70;;
59978;SDS011;45839;44.882;20.650;2022-12-24T02:42:27;28.17;;;22.65;;
59978;SDS011;45839;44.882;20.650;2022-12-24T02:44:56;26.33;;;22.42;;
59978;SDS011;45839;44.882;20.650;2022-12-24T02:47:25;30.65;;;21.88;;
59978;SDS011;45839;44.882;20.650;2022-12-24T02:49:51;25.23;;;21.52;;
59978;SDS011;45839;44.882;20.650;2022-12-24T02:52:37;31.63;;;23.20;;
59978;SDS011;45839;44.882;20.650;2022-12-24T02:55:08;29.50;;;22.77;;
59978;SDS011;45839;44.882;20.650;2022-12-24T03:00:08;29.63;;;23.52;;
59978;SDS011;45839;44.882;20.650;2022-12-24T03:02:51;30.30;;;23.50;;
59978;SDS011;45839;44.882;20.650;2022-12-24T03:08:12;28.52;;;23.23;;
59978;SDS011;45839;44.882;20.650;2022-12-24T03:13:06;29.10;;;24.65;;
59978;SDS011;45839;44.882;20.650;2022-12-24T03:15:35;26.95;;;22.60;;
59978;SDS011;45839;44.882;20.650;2022-12-24T03:18:02;28.80;;;23.73;;
59978;SDS011;45839;44.882;20.650;2022-12-24T03:20:47;30.85;;;25.45;;
59978;SDS011;45839;44.882;20.650;2022-12-24T03:23:15;29.38;;;23.50;;
59978;SDS011;45839;44.882;20.650;2022-12-24T03:25:42;29.08;;;23.20;;
59978;SDS011;45839;44.882;20.650;2022-12-24T03:28:09;29.83;;;24.00;;
59978;SDS011;45839;44.882;20.650;2022-12-24T03:30:40;28.17;;;22.52;;
59978;SDS011;45839;44.882;20.650;2022-12-24T03:33:07;29.67;;;23.90;;
59978;SDS011;45839;44.882;20.650;2022-12-24T03:35:33;30.15;;;22.92;;
59978;SDS011;45839;44.882;20.650;2022-12-24T03:37:59;28.38;;;22.75;;
59978;SDS011;45839;44.882;20.650;2022-12-24T03:40:25;29.65;;;24.48;;
59978;SDS011;45839;44.882;20.650;2022-12-24T03:42:51;29.48;;;22.88;;
59978;SDS011;45839;44.882;20.650;2022-12-24T03:45:17;29.40;;;23.25;;
59978;SDS011;45839;44.882;20.650;2022-12-24T03:47:43;31.25;;;23.60;;
59978;SDS011;45839;44.882;20.650;2022-12-24T03:50:09;28.42;;;23.42;;
59978;SDS011;45839;44.882;20.650;2022-12-24T03:52:35;26.92;;;21.92;;
59978;SDS011;45839;44.882;20.650;2022-12-24T03:55:01;28.92;;;22.38;;
59978;SDS011;45839;44.882;20.650;2022-12-24T03:57:28;28.90;;;22.45;;
59978;SDS011;45839;44.882;20.650;2022-12-24T03:59:54;30.52;;;23.38;;
59978;SDS011;45839;44.882;20.650;2022-12-24T04:02:20;26.73;;;22.50;;
59978;SDS011;45839;44.882;20.650;2022-12-24T04:04:46;28.98;;;22.90;;
59978;SDS011;45839;44.882;20.650;2022-12-24T04:07:12;29.08;;;23.50;;
59978;SDS011;45839;44.882;20.650;2022-12-24T04:09:38;32.45;;;24.10;;
59978;SDS011;45839;44.882;20.650;2022-12-24T04:12:04;29.95;;;23.67;;
59978;SDS011;45839;44.882;20.650;2022-12-24T04:14:30;32.45;;;24.83;;
59978;SDS011;45839;44.882;20.650;2022-12-24T04:16:57;31.08;;;24.48;;
59978;SDS011;45839;44.882;20.650;2022-12-24T04:19:23;29.85;;;23.63;;
59978;SDS011;45839;44.882;20.650;2022-12-24T04:21:49;27.45;;;20.88;;
59978;SDS011;45839;44.882;20.650;2022-12-24T04:24:15;28.48;;;21.80;;
59978;SDS011;45839;44.882;20.650;2022-12-24T04:26:41;26.48;;;21.33;;
59978;SDS011;45839;44.882;20.650;2022-12-24T04:29:07;31.10;;;22.52;;
59978;SDS011;45839;44.882;20.650;2022-12-24T04:31:33;27.40;;;22.48;;
59978;SDS011;45839;44.882;20.650;2022-12-24T04:33:59;28.13;;;22.13;;
59978;SDS011;45839;44.882;20.650;2022-12-24T04:36:25;28.42;;;21.67;;
59978;SDS011;45839;44.882;20.650;2022-12-24T04:38:51;27.40;;;21.95;;
59978;SDS011;45839;44.882;20.650;2022-12-24T04:41:18;26.88;;;21.27;;
59978;SDS011;45839;44.882;20.650;2022-12-24T04:43:45;26.33;;;21.17;;
59978;SDS011;45839;44.882;20.650;2022-12-24T04:46:18;27.90;;;21.08;;
59978;SDS011;45839;44.882;20.650;2022-12-24T04:48:46;26.60;;;21.42;;
59978;SDS011;45839;44.882;20.650;2022-12-24T04:51:13;27.83;;;21.95;;
59978;SDS011;45839;44.882;20.650;2022-12-24T04:53:40;26.63;;;22.05;;
59978;SDS011;45839;44.882;20.650;2022-12-24T04:56:06;27.88;;;22.42;;
59978;SDS011;45839;44.882;20.650;2022-12-24T04:58:33;28.83;;;23.00;;
59978;SDS011;45839;44.882;20.650;2022-12-24T05:01:03;27.38;;;21.75;;
59978;SDS011;45839;44.882;20.650;2022-12-24T05:03:29;27.67;;;22.88;;
59978;SDS011;45839;44.882;20.650;2022-12-24T05:06:01;25.27;;;21.42;;
59978;SDS011;45839;44.882;20.650;2022-12-24T05:08:28;29.23;;;22.60;;
59978;SDS011;45839;44.882;20.650;2022-12-24T05:10:55;29.90;;;22.85;;
59978;SDS011;45839;44.882;20.650;2022-12-24T05:13:21;27.25;;;22.30;;
59978;SDS011;45839;44.882;20.650;2022-12-24T05:15:47;28.63;;;22.50;;
59978;SDS011;45839;44.882;20.650;2022-12-24T05:18:13;27.80;;;21.90;;
59978;SDS011;45839;44.882;20.650;2022-12-24T05:20:42;29.55;;;22.27;;
59978;SDS011;45839;44.882;20.650;2022-12-24T05:23:09;28.40;;;21.77;;
59978;SDS011;45839;44.882;20.650;2022-12-24T05:25:58;27.02;;;21.25;;
59978;SDS011;45839;44.882;20.650;2022-12-24T05:28:43;26.50;;;20.48;;
59978;SDS011;45839;44.882;20.650;2022-12-24T05:31:09;27.55;;;21.88;;
59978;SDS011;45839;44.882;20.650;2022-12-24T05:33:35;29.27;;;22.55;;
59978;SDS011;45839;44.882;20.650;2022-12-24T05:36:01;29.42;;;22.33;;
59978;SDS011;45839;44.882;20.650;2022-12-24T05:38:27;27.48;;;23.23;;
59978;SDS011;45839;44.882;20.650;2022-12-24T05:40:53;28.75;;;23.02;;
59978;SDS011;45839;44.882;20.650;2022-12-24T05:43:19;30.35;;;23.20;;
59978;SDS011;45839;44.882;20.650;2022-12-24T05:45:45;28.83;;;22.20;;
59978;SDS011;45839;44.882;20.650;2022-12-24T05:48:11;27.30;;;21.95;;
59978;SDS011;45839;44.882;20.650;2022-12-24T05:50:38;28.63;;;22.13;;
59978;SDS011;45839;44.882;20.650;2022-12-24T05:53:04;29.55;;;23.55;;
59978;SDS011;45839;44.882;20.650;2022-12-24T05:55:30;27.25;;;22.85;;
59978;SDS011;45839;44.882;20.650;2022-12-24T05:57:56;25.95;;;21.40;;
59978;SDS011;45839;44.882;20.650;2022-12-24T06:00:24;27.83;;;22.45;;
59978;SDS011;45839;44.882;20.650;2022-12-24T06:02:50;31.30;;;24.83;;
59978;SDS011;45839;44.882;20.650;2022-12-24T06:05:16;31.67;;;24.65;;
59978;SDS011;45839;44.882;20.650;2022-12-24T06:07:42;36.25;;;27.55;;
59978;SDS011;45839;44.882;20.650;2022-12-24T06:10:08;31.30;;;26.02;;
59978;SDS011;45839;44.882;20.650;2022-12-24T06:12:34;32.55;;;25.77;;
59978;SDS011;45839;44.882;20.650;2022-12-24T06:15:00;30.05;;;22.92;;
59978;SDS011;45839;44.882;20.650;2022-12-24T06:17:26;29.42;;;22.50;;
59978;SDS011;45839;44.882;20.650;2022-12-24T06:19:52;29.02;;;22.15;;
59978;SDS011;45839;44.882;20.650;2022-12-24T06:22:19;32.58;;;25.48;;
59978;SDS011;45839;44.882;20.650;2022-12-24T06:24:45;32.30;;;24.88;;
59978;SDS011;45839;44.882;20.650;2022-12-24T06:27:11;26.95;;;21.73;;
59978;SDS011;45839;44.882;20.650;2022-12-24T06:29:37;32.50;;;26.75;;
59978;SDS011;45839;44.882;20.650;2022-12-24T06:32:03;31.95;;;25.35;;
59978;SDS011;45839;44.882;20.650;2022-12-24T06:34:29;31.17;;;24.73;;
59978;SDS011;45839;44.882;20.650;2022-12-24T06:36:55;37.33;;;28.95;;
59978;SDS011;45839;44.882;20.650;2022-12-24T06:39:21;30.00;;;22.95;;
59978;SDS011;45839;44.882;20.650;2022-12-24T06:41:47;28.30;;;23.35;;
59978;SDS011;45839;44.882;20.650;2022-12-24T06:44:13;27.00;;;23.08;;
59978;SDS011;45839;44.882;20.650;2022-12-24T06:46:39;27.90;;;23.20;;
59978;SDS011;45839;44.882;20.650;2022-12-24T06:49:05;28.75;;;24.17;;
59978;SDS011;45839;44.882;20.650;2022-12-24T06:51:31;30.05;;;24.48;;
59978;SDS011;45839;44.882;20.650;2022-12-24T06:53:57;29.05;;;23.80;;
59978;SDS011;45839;44.882;20.650;2022-12-24T06:56:23;37.05;;;27.95;;
59978;SDS011;45839;44.882;20.650;2022-12-24T06:58:49;35.03;;;28.35;;
59978;SDS011;45839;44.882;20.650;2022-12-24T07:01:16;32.22;;;26.42;;
59978;SDS011;45839;44.882;20.650;2022-12-24T07:03:43;32.22;;;25.70;;
59978;SDS011;45839;44.882;20.650;2022-12-24T07:06:30;37.28;;;30.33;;
59978;SDS011;45839;44.882;20.650;2022-12-24T07:08:55;37.50;;;29.48;;
59978;SDS011;45839;44.882;20.650;2022-12-24T07:11:22;34.17;;;29.13;;
59978;SDS011;45839;44.882;20.650;2022-12-24T07:13:48;32.20;;;26.83;;
59978;SDS011;45839;44.882;20.650;2022-12-24T07:16:14;29.10;;;24.98;;
59978;SDS011;45839;44.882;20.650;2022-12-24T07:18:41;31.30;;;26.13;;
59978;SDS011;45839;44.882;20.650;2022-12-24T07:21:07;34.75;;;27.58;;
59978;SDS011;45839;44.882;20.650;2022-12-24T07:23:34;32.80;;;26.25;;
59978;SDS011;45839;44.882;20.650;2022-12-24T07:26:01;33.10;;;27.60;;
59978;SDS011;45839;44.882;20.650;2022-12-24T07:28:28;44.47;;;31.48;;
59978;SDS011;45839;44.882;20.650;2022-12-24T07:30:55;59.70;;;41.83;;
59978;SDS011;45839;44.882;20.650;2022-12-24T07:33:21;39.40;;;33.35;;
59978;SDS011;45839;44.882;20.650;2022-12-24T07:35:47;47.15;;;38.15;;
59978;SDS011;45839;44.882;20.650;2022-12-24T07:38:13;44.50;;;36.88;;
59978;SDS011;45839;44.882;20.650;2022-12-24T07:40:39;41.75;;;33.63;;
59978;SDS011;45839;44.882;20.650;2022-12-24T07:43:05;44.63;;;35.58;;
59978;SDS011;45839;44.882;20.650;2022-12-24T07:45:31;40.95;;;35.03;;
59978;SDS011;45839;44.882;20.650;2022-12-24T07:47:57;45.60;;;36.55;;
59978;SDS011;45839;44.882;20.650;2022-12-24T07:50:23;42.33;;;35.25;;
59978;SDS011;45839;44.882;20.650;2022-12-24T07:52:49;41.20;;;34.03;;
59978;SDS011;45839;44.882;20.650;2022-12-24T07:55:15;40.53;;;33.22;;
59978;SDS011;45839;44.882;20.650;2022-12-24T07:57:41;41.83;;;32.80;;
59978;SDS011;45839;44.882;20.650;2022-12-24T08:00:07;44.55;;;35.85;;
59978;SDS011;45839;44.882;20.650;2022-12-24T08:02:34;42.88;;;34.30;;
59978;SDS011;45839;44.882;20.650;2022-12-24T08:05:00;46.45;;;38.25;;
59978;SDS011;45839;44.882;20.650;2022-12-24T08:07:26;49.78;;;39.80;;
59978;SDS011;45839;44.882;20.650;2022-12-24T08:09:52;45.65;;;37.65;;
59978;SDS011;45839;44.882;20.650;2022-12-24T08:12:18;54.35;;;43.38;;
59978;SDS011;45839;44.882;20.650;2022-12-24T08:14:44;65.78;;;48.30;;
59978;SDS011;45839;44.882;20.650;2022-12-24T08:17:10;56.50;;;43.25;;
59978;SDS011;45839;44.882;20.650;2022-12-24T08:19:36;53.38;;;41.80;;
59978;SDS011;45839;44.882;20.650;2022-12-24T08:22:02;47.33;;;39.15;;
59978;SDS011;45839;44.882;20.650;2022-12-24T08:24:28;46.00;;;37.60;;
59978;SDS011;45839;44.882;20.650;2022-12-24T08:26:55;49.35;;;40.55;;
59978;SDS011;45839;44.882;20.650;2022-12-24T08:29:21;50.40;;;40.92;;
59978;SDS011;45839;44.882;20.650;2022-12-24T08:31:47;51.00;;;42.22;;
59978;SDS011;45839;44.882;20.650;2022-12-24T08:34:13;50.35;;;43.00;;
59978;SDS011;45839;44.882;20.650;2022-12-24T08:36:39;50.25;;;42.67;;
59978;SDS011;45839;44.882;20.650;2022-12-24T08:39:05;53.75;;;44.67;;
59978;SDS011;45839;44.882;20.650;2022-12-24T08:41:33;54.88;;;46.45;;
59978;SDS011;45839;44.882;20.650;2022-12-24T08:43:59;58.78;;;48.47;;
59978;SDS011;45839;44.882;20.650;2022-12-24T08:46:25;59.33;;;48.42;;
59978;SDS011;45839;44.882;20.650;2022-12-24T08:48:51;57.33;;;46.60;;
59978;SDS011;45839;44.882;20.650;2022-12-24T08:51:17;51.40;;;41.78;;
59978;SDS011;45839;44.882;20.650;2022-12-24T08:53:44;46.72;;;38.75;;
59978;SDS011;45839;44.882;20.650;2022-12-24T08:56:11;34.28;;;28.70;;
59978;SDS011;45839;44.882;20.650;2022-12-24T08:58:37;34.85;;;28.75;;
59978;SDS011;45839;44.882;20.650;2022-12-24T09:01:10;33.90;;;26.92;;
59978;SDS011;45839;44.882;20.650;2022-12-24T09:03:36;29.33;;;25.27;;
59978;SDS011;45839;44.882;20.650;2022-12-24T09:06:03;27.75;;;24.00;;
59978;SDS011;45839;44.882;20.650;2022-12-24T09:08:30;26.35;;;21.40;;
59978;SDS011;45839;44.882;20.650;2022-12-24T09:11:00;26.83;;;21.88;;
59978;SDS011;45839;44.882;20.650;2022-12-24T09:13:27;27.40;;;22.60;;
59978;SDS011;45839;44.882;20.650;2022-12-24T09:15:53;26.05;;;21.67;;
59978;SDS011;45839;44.882;20.650;2022-12-24T09:18:19;25.73;;;20.90;;
59978;SDS011;45839;44.882;20.650;2022-12-24T09:20:45;24.13;;;21.23;;
59978;SDS011;45839;44.882;20.650;2022-12-24T09:23:12;27.35;;;21.77;;
59978;SDS011;45839;44.882;20.650;2022-12-24T09:25:42;26.30;;;21.17;;
59978;SDS011;45839;44.882;20.650;2022-12-24T09:28:08;27.52;;;22.60;;
59978;SDS011;45839;44.882;20.650;2022-12-24T09:30:35;30.08;;;24.98;;
59978;SDS011;45839;44.882;20.650;2022-12-24T09:33:02;30.13;;;25.27;;
59978;SDS011;45839;44.882;20.650;2022-12-24T09:35:28;30.48;;;26.10;;
59978;SDS011;45839;44.882;20.650;2022-12-24T09:37:54;32.25;;;27.05;;
59978;SDS011;45839;44.882;20.650;2022-12-24T09:40:32;34.13;;;26.98;;
59978;SDS011;45839;44.882;20.650;2022-12-24T09:43:00;32.88;;;26.60;;
59978;SDS011;45839;44.882;20.650;2022-12-24T09:45:28;29.45;;;25.70;;
59978;SDS011;45839;44.882;20.650;2022-12-24T09:47:57;31.42;;;26.58;;
59978;SDS011;45839;44.882;20.650;2022-12-24T09:52:56;40.00;;;32.47;;
59978;SDS011;45839;44.882;20.650;2022-12-24T09:58:17;39.08;;;32.42;;
59978;SDS011;45839;44.882;20.650;2022-12-24T10:00:45;36.58;;;30.77;;
59978;SDS011;45839;44.882;20.650;2022-12-24T10:03:14;33.78;;;28.60;;
59978;SDS011;45839;44.882;20.650;2022-12-24T10:05:42;36.92;;;30.65;;
59978;SDS011;45839;44.882;20.650;2022-12-24T10:13:11;52.00;;;44.08;;
59978;SDS011;45839;44.882;20.650;2022-12-24T10:15:40;49.95;;;42.53;;
59978;SDS011;45839;44.882;20.650;2022-12-24T10:18:30;49.40;;;42.80;;
59978;SDS011;45839;44.882;20.650;2022-12-24T10:21:14;54.42;;;45.60;;
59978;SDS011;45839;44.882;20.650;2022-12-24T10:26:38;50.38;;;42.55;;
59978;SDS011;45839;44.882;20.650;2022-12-24T10:29:42;57.17;;;46.72;;
59978;SDS011;45839;44.882;20.650;2022-12-24T10:34:40;67.93;;;53.00;;
59978;SDS011;45839;44.882;20.650;2022-12-24T10:37:14;63.38;;;53.88;;
59978;SDS011;45839;44.882;20.650;2022-12-24T10:42:06;58.95;;;52.47;;
59978;SDS011;45839;44.882;20.650;2022-12-24T10:44:33;59.72;;;51.90;;
59978;SDS011;45839;44.882;20.650;2022-12-24T10:46:59;57.85;;;49.47;;
59978;SDS011;45839;44.882;20.650;2022-12-24T10:52:28;57.20;;;48.35;;
59978;SDS011;45839;44.882;20.650;2022-12-24T10:55:06;56.15;;;47.75;;
59978;SDS011;45839;44.882;20.650;2022-12-24T10:57:33;61.65;;;51.72;;
59978;SDS011;45839;44.882;20.650;2022-12-24T10:59:59;59.35;;;51.95;;
59978;SDS011;45839;44.882;20.650;2022-12-24T11:05:00;61.47;;;50.47;;
59978;SDS011;45839;44.882;20.650;2022-12-24T11:07:27;57.28;;;48.58;;
59978;SDS011;45839;44.882;20.650;2022-12-24T11:09:58;53.47;;;45.85;;
59978;SDS011;45839;44.882;20.650;2022-12-24T11:12:26;52.35;;;45.55;;
59978;SDS011;45839;44.882;20.650;2022-12-24T11:17:37;51.53;;;42.83;;
59978;SDS011;45839;44.882;20.650;2022-12-24T11:20:05;50.20;;;42.92;;
59978;SDS011;45839;44.882;20.650;2022-12-24T11:22:32;45.35;;;39.35;;
59978;SDS011;45839;44.882;20.650;2022-12-24T11:25:00;48.60;;;42.00;;
59978;SDS011;45839;44.882;20.650;2022-12-24T11:30:18;55.30;;;46.17;;
59978;SDS011;45839;44.882;20.650;2022-12-24T11:32:42;57.45;;;48.47;;
59978;SDS011;45839;44.882;20.650;2022-12-24T11:35:28;61.95;;;51.30;;
59978;SDS011;45839;44.882;20.650;2022-12-24T11:40:36;83.88;;;70.50;;
59978;SDS011;45839;44.882;20.650;2022-12-24T11:43:03;91.28;;;77.85;;
59978;SDS011;45839;44.882;20.650;2022-12-24T11:45:30;90.05;;;76.25;;
59978;SDS011;45839;44.882;20.650;2022-12-24T11:47:57;86.30;;;71.22;;
59978;SDS011;45839;44.882;20.650;2022-12-24T11:50:25;85.53;;;72.68;;
59978;SDS011;45839;44.882;20.650;2022-12-24T11:52:54;89.47;;;79.03;;
59978;SDS011;45839;44.882;20.650;2022-12-24T11:57:59;88.35;;;74.10;;
59978;SDS011;45839;44.882;20.650;2022-12-24T12:00:27;82.22;;;69.18;;
59978;SDS011;45839;44.882;20.650;2022-12-24T12:02:54;81.25;;;70.32;;
59978;SDS011;45839;44.882;20.650;2022-12-24T12:05:25;82.13;;;71.85;;
59978;SDS011;45839;44.882;20.650;2022-12-24T12:07:54;80.20;;;68.63;;
59978;SDS011;45839;44.882;20.650;2022-12-24T12:10:24;61.47;;;54.30;;
59978;SDS011;45839;44.882;20.650;2022-12-24T12:12:58;61.35;;;53.28;;
59978;SDS011;45839;44.882;20.650;2022-12-24T12:15:31;40.13;;;35.00;;
59978;SDS011;45839;44.882;20.650;2022-12-24T12:20:40;44.63;;;35.97;;
59978;SDS011;45839;44.882;20.650;2022-12-24T12:28:05;26.10;;;21.98;;
59978;SDS011;45839;44.882;20.650;2022-12-24T12:30:32;25.48;;;21.33;;
59978;SDS011;45839;44.882;20.650;2022-12-24T12:33:19;25.77;;;21.05;;
59978;SDS011;45839;44.882;20.650;2022-12-24T12:35:47;23.92;;;18.48;;
59978;SDS011;45839;44.882;20.650;2022-12-24T12:45:57;21.73;;;17.80;;
59978;SDS011;45839;44.882;20.650;2022-12-24T12:58:52;28.73;;;21.30;;
59978;SDS011;45839;44.882;20.650;2022-12-24T13:01:22;29.30;;;21.55;;
59978;SDS011;45839;44.882;20.650;2022-12-24T13:03:54;28.83;;;21.33;;
59978;SDS011;45839;44.882;20.650;2022-12-24T13:22:38;25.25;;;19.52;;
59978;SDS011;45839;44.882;20.650;2022-12-24T13:25:04;23.02;;;18.33;;
59978;SDS011;45839;44.882;20.650;2022-12-24T13:27:31;24.55;;;20.40;;
59978;SDS011;45839;44.882;20.650;2022-12-24T13:35:00;20.85;;;16.35;;
59978;SDS011;45839;44.882;20.650;2022-12-24T13:48:00;19.95;;;14.02;;
59978;SDS011;45839;44.882;20.650;2022-12-24T13:50:48;18.70;;;14.65;;
59978;SDS011;45839;44.882;20.650;2022-12-24T13:55:51;18.08;;;14.55;;
59978;SDS011;45839;44.882;20.650;2022-12-24T13:58:19;20.98;;;14.40;;
59978;SDS011;45839;44.882;20.650;2022-12-24T14:03:22;18.88;;;14.13;;
59978;SDS011;45839;44.882;20.650;2022-12-24T14:05:50;20.13;;;14.50;;
59978;SDS011;45839;44.882;20.650;2022-12-24T14:16:03;20.77;;;16.08;;
59978;SDS011;45839;44.882;20.650;2022-12-24T14:18:31;19.35;;;15.60;;
59978;SDS011;45839;44.882;20.650;2022-12-24T14:20:58;20.20;;;15.60;;
59978;SDS011;45839;44.882;20.650;2022-12-24T14:25:51;21.27;;;15.82;;
59978;SDS011;45839;44.882;20.650;2022-12-24T14:28:28;18.60;;;14.95;;
59978;SDS011;45839;44.882;20.650;2022-12-24T14:31:01;21.20;;;15.25;;
59978;SDS011;45839;44.882;20.650;2022-12-24T14:33:28;21.17;;;15.20;;
59978;SDS011;45839;44.882;20.650;2022-12-24T14:35:54;18.05;;;14.27;;
59978;SDS011;45839;44.882;20.650;2022-12-24T14:38:21;19.80;;;14.55;;
59978;SDS011;45839;44.882;20.650;2022-12-24T14:48:55;19.20;;;14.73;;
59978;SDS011;45839;44.882;20.650;2022-12-24T14:54:28;20.25;;;15.50;;
59978;SDS011;45839;44.882;20.650;2022-12-24T14:57:06;19.50;;;14.57;;
59978;SDS011;45839;44.882;20.650;2022-12-24T15:10:21;19.33;;;14.80;;
59978;SDS011;45839;44.882;20.650;2022-12-24T15:12:48;21.20;;;14.18;;
59978;SDS011;45839;44.882;20.650;2022-12-24T15:15:15;19.25;;;14.77;;
59978;SDS011;45839;44.882;20.650;2022-12-24T15:17:42;21.58;;;15.52;;
59978;SDS011;45839;44.882;20.650;2022-12-24T15:20:26;18.90;;;15.25;;
59978;SDS011;45839;44.882;20.650;2022-12-24T15:22:54;19.95;;;15.13;;
59978;SDS011;45839;44.882;20.650;2022-12-24T15:27:46;21.50;;;14.85;;
59978;SDS011;45839;44.882;20.650;2022-12-24T15:30:13;21.13;;;16.17;;
59978;SDS011;45839;44.882;20.650;2022-12-24T15:32:41;19.95;;;15.70;;
59978;SDS011;45839;44.882;20.650;2022-12-24T15:35:28;20.95;;;16.10;;
59978;SDS011;45839;44.882;20.650;2022-12-24T15:37:53;20.83;;;16.55;;
59978;SDS011;45839;44.882;20.650;2022-12-24T15:40:22;21.05;;;15.98;;
59978;SDS011;45839;44.882;20.650;2022-12-24T15:42:49;23.58;;;16.55;;
59978;SDS011;45839;44.882;20.650;2022-12-24T15:45:19;20.92;;;16.33;;
59978;SDS011;45839;44.882;20.650;2022-12-24T15:47:48;20.37;;;15.90;;
59978;SDS011;45839;44.882;20.650;2022-12-24T15:52:55;21.40;;;17.25;;
59978;SDS011;45839;44.882;20.650;2022-12-24T15:55:32;20.45;;;16.70;;
59978;SDS011;45839;44.882;20.650;2022-12-24T15:57:59;22.40;;;16.80;;
59978;SDS011;45839;44.882;20.650;2022-12-24T16:00:26;22.20;;;16.80;;
59978;SDS011;45839;44.882;20.650;2022-12-24T16:03:08;22.70;;;18.17;;
59978;SDS011;45839;44.882;20.650;2022-12-24T16:05:35;24.73;;;18.00;;
59978;SDS011;45839;44.882;20.650;2022-12-24T16:08:06;21.92;;;17.38;;
59978;SDS011;45839;44.882;20.650;2022-12-24T16:13:34;21.27;;;17.90;;
59978;SDS011;45839;44.882;20.650;2022-12-24T16:16:01;23.38;;;18.33;;
59978;SDS011;45839;44.882;20.650;2022-12-24T16:18:33;22.58;;;18.92;;
59978;SDS011;45839;44.882;20.650;2022-12-24T16:21:00;24.65;;;19.55;;
59978;SDS011;45839;44.882;20.650;2022-12-24T16:23:32;22.50;;;19.02;;
59978;SDS011;45839;44.882;20.650;2022-12-24T16:25:59;23.95;;;18.92;;
59978;SDS011;45839;44.882;20.650;2022-12-24T16:28:25;24.38;;;19.30;;
59978;SDS011;45839;44.882;20.650;2022-12-24T16:30:51;22.92;;;19.73;;
59978;SDS011;45839;44.882;20.650;2022-12-24T16:33:19;30.45;;;23.60;;
59978;SDS011;45839;44.882;20.650;2022-12-24T16:35:47;28.85;;;21.70;;
59978;SDS011;45839;44.882;20.650;2022-12-24T16:38:13;31.60;;;23.77;;
59978;SDS011;45839;44.882;20.650;2022-12-24T16:40:40;34.70;;;25.52;;
59978;SDS011;45839;44.882;20.650;2022-12-24T16:43:06;29.40;;;23.90;;
59978;SDS011;45839;44.882;20.650;2022-12-24T16:45:51;48.72;;;35.80;;
59978;SDS011;45839;44.882;20.650;2022-12-24T16:48:22;38.08;;;30.63;;
59978;SDS011;45839;44.882;20.650;2022-12-24T16:50:49;39.05;;;31.05;;
59978;SDS011;45839;44.882;20.650;2022-12-24T16:53:16;61.25;;;48.80;;
59978;SDS011;45839;44.882;20.650;2022-12-24T16:55:42;133.15;;;95.57;;
59978;SDS011;45839;44.882;20.650;2022-12-24T16:58:13;51.15;;;42.85;;
59978;SDS011;45839;44.882;20.650;2022-12-24T17:00:40;75.28;;;63.58;;